MSC Vega — D5BE4 — position and weather

sailwx.info

Track history (hours):
 
Tides and Currents Weather Stations Pressure Air Temp Water Temp Dewpoint Dewpoint Depression Visibility Wind Speed Wind Dir Waves Ship Positions

MSC Vega

Last reported at 2017-May-29 12:00 UTC. Time now 2017-May-30 01:28 UTC.
Position N 35°18' E 163°30'.

Length 366 m; draft 13.9 m.

Type: Ship (hazmat cat A). MMSI: 636015506.

Wind from 230 at 17 knots

Barometer 1010.0 mb
Air temperature 17.0 ° C
Visibility: greater than 2.2 NM
Dewpoint 15.4 ° C
Water temperature 17.5 ° C

Date/timePositionNaut miles runAvg speedWind from/ knotsBaromVisibWave heightAir tempDewpointWater temp
2017-May-29 12:00N 35°18' E 163°30'49420.6 230 / 171010.0 2.2 17.015.417.5
2017-May-28 12:00N 34°36' E 153°30'13422.3 200 / 231013.0 0.0 20.519.821.0
2017-May-28 06:00N 34°24' E 150°48'12420.7 150 / 241012.0 2.2 19.619.621.2
2017-May-28 00:00N 34°12' E 148°18'13522.4 140 / 141014.0 2.2 19.018.220.5
2017-May-27 18:00N 34°00' E 145°36'12020.0 210 / 121012.5 5.4 20.920.920.8
2017-May-27 12:00N 33°48' E 143°12'12520.8 200 / 161010.0 5.4 22.521.822.9
2017-May-27 06:00N 33°42' E 140°42'26321.9 240 / 81010.510.8 25.019.522.0
2017-May-26 18:00N 31°48' E 136°00'12821.3 260 / 171007.510.8 22.017.824.6
2017-May-26 12:00N 30°48' E 133°48'26622.2 250 / 221007.210.8 23.016.125.2
2017-May-26 00:00N 28°42' E 129°18'12821.4 320 / 141008.010.8 24.518.622.1
2017-May-25 18:00N 27°48' E 127°06'12921.5 340 / 181009.010.8 22.920.026.3
2017-May-25 12:00N 26°54' E 124°54'37820.6 010 / 221010.0 5.4 22.019.025.0
2017-May-24 17:41N 24°14' E 118°35'418.6
2017-May-24 17:28N 24°13' E 118°31'917.5
2017-May-24 16:58N 24°11' E 118°21'715.7
2017-May-24 16:30N 24°15' E 118°15'816.2
2017-May-24 16:00N 24°21' E 118°09'612.0
2017-May-24 15:31N 24°25' E 118°04'2 4.4
2017-May-24 15:00N 24°26' E 118°02'0 0.3
2017-May-24 14:31N 24°26' E 118°02'0 0.0
2017-May-24 13:29N 24°26' E 118°02'0 0.0
2017-May-24 12:59N 24°26' E 118°02'0 0.0
2017-May-24 12:29N 24°26' E 118°02'0 0.0
2017-May-24 11:59N 24°26' E 118°02'0 0.0
2017-May-24 11:29N 24°26' E 118°02'0 0.0
2017-May-24 10:59N 24°27' E 118°02'0 0.0
2017-May-24 10:29N 24°26' E 118°02'0 0.0
2017-May-24 09:59N 24°26' E 118°02'0 0.0
2017-May-24 09:29N 24°26' E 118°02'0 0.0
2017-May-24 08:59N 24°26' E 118°02'0 0.0
2017-May-24 08:29N 24°26' E 118°02'0 0.0
2017-May-24 07:59N 24°26' E 118°02'0 0.0
2017-May-24 07:26N 24°26' E 118°02'0 0.0
2017-May-24 06:59N 24°26' E 118°02'0 0.0
2017-May-24 06:29N 24°26' E 118°02'0 0.0
2017-May-24 05:59N 24°26' E 118°02'0 0.0
2017-May-24 05:29N 24°26' E 118°02'0 0.0
2017-May-24 04:56N 24°26' E 118°02'0 0.0
2017-May-24 04:29N 24°26' E 118°02'0 0.0
2017-May-24 03:59N 24°26' E 118°02'0 0.0
2017-May-24 03:29N 24°26' E 118°02'0 0.0
2017-May-24 02:59N 24°26' E 118°02'0 0.0
2017-May-24 02:29N 24°26' E 118°02'0 0.0
2017-May-24 01:59N 24°26' E 118°02'0 0.0
2017-May-24 01:29N 24°26' E 118°02'0 0.0
2017-May-24 00:59N 24°26' E 118°02'0 0.0
2017-May-24 00:29N 24°26' E 118°02'0 0.0
2017-May-23 23:59N 24°26' E 118°02'0 0.0
2017-May-23 23:29N 24°26' E 118°02'0 0.0
2017-May-23 22:59N 24°26' E 118°02'0 0.0
2017-May-23 22:29N 24°26' E 118°02'0 0.0
2017-May-23 21:59N 24°26' E 118°02'0 0.0
2017-May-23 21:29N 24°26' E 118°02'0 0.0
2017-May-23 20:59N 24°26' E 118°02'0 0.0
2017-May-23 20:29N 24°26' E 118°02'0 0.0
2017-May-23 19:59N 24°26' E 118°02'0 0.0
2017-May-23 19:29N 24°26' E 118°02'0 0.0
2017-May-23 18:59N 24°26' E 118°02'0 0.0
2017-May-23 18:29N 24°26' E 118°02'0 0.1
2017-May-23 18:00N 24°26' E 118°02'3 5.5
2017-May-23 17:30N 24°25' E 118°04'510.7
2017-May-23 17:01N 24°22' E 118°09'4 8.0
2017-May-23 16:31N 24°19' E 118°12'713.0
2017-May-23 16:00N 24°14' E 118°16'713.8
2017-May-23 15:30N 24°12' E 118°24'0 0.1
2017-May-23 11:42N 24°12' E 118°24'0 0.0
2017-May-23 11:06N 24°12' E 118°24'0 0.0
2017-May-23 10:57N 24°12' E 118°24'0 0.0
2017-May-23 10:21N 24°12' E 118°24'0 0.0
2017-May-23 09:54N 24°12' E 118°24'0 0.0
2017-May-23 09:30N 24°12' E 118°24'0 0.0
2017-May-23 09:00N 24°12' E 118°24'0 0.0
2017-May-23 08:12N 24°12' E 118°24'0 0.0
2017-May-23 08:00N 24°12' E 118°24'0 0.1
2017-May-23 06:42N 24°12' E 118°24'0 0.0
2017-May-23 06:30N 24°12' E 118°24'0 0.0
2017-May-23 06:00N 24°12' E 118°24'0 0.1
2017-May-23 05:30N 24°12' E 118°24'0 0.6
2017-May-23 04:58N 24°12' E 118°24'2 5.1
2017-May-23 04:30N 24°09' E 118°23'4 7.3
2017-May-23 04:00N 24°06' E 118°24'816.3
2017-May-23 03:30N 23°58' E 118°23'  
2017-May-20 21:05N 22°19' E 114°07'0 5.2
2017-May-20 21:00N 22°20' E 114°07'0 0.0
2017-May-20 06:42N 22°20' E 114°07'0 1.8
2017-May-20 06:28N 22°20' E 114°07'  
Track history (hours):
 
Tides and Currents Weather Stations Pressure Air Temp Water Temp Dewpoint Dewpoint Depression Visibility Wind Speed Wind Dir Waves Ship Positions

MSC Vega

Last reported at 2017-May-29 12:00 UTC. Time now 2017-May-30 01:28 UTC.
Position N 35°18' E 163°30'.

Length 366 m; draft 13.9 m.

Type: Ship (hazmat cat A). MMSI: 636015506.

Wind from 230 at 17 knots

Barometer 1010.0 mb
Air temperature 17.0 ° C
Visibility: greater than 2.2 NM
Dewpoint 15.4 ° C
Water temperature 17.5 ° C

Date/timePositionNaut miles runAvg speedWind from/ knotsBaromVisibWave heightAir tempDewpointWater temp
2017-May-29 12:00N 35°18' E 163°30'49420.6 230 / 171010.0 2.2 17.015.417.5
2017-May-28 12:00N 34°36' E 153°30'13422.3 200 / 231013.0 0.0 20.519.821.0
2017-May-28 06:00N 34°24' E 150°48'12420.7 150 / 241012.0 2.2 19.619.621.2
2017-May-28 00:00N 34°12' E 148°18'13522.4 140 / 141014.0 2.2 19.018.220.5
2017-May-27 18:00N 34°00' E 145°36'12020.0 210 / 121012.5 5.4 20.920.920.8
2017-May-27 12:00N 33°48' E 143°12'12520.8 200 / 161010.0 5.4 22.521.822.9
2017-May-27 06:00N 33°42' E 140°42'26321.9 240 / 81010.510.8 25.019.522.0
2017-May-26 18:00N 31°48' E 136°00'12821.3 260 / 171007.510.8 22.017.824.6
2017-May-26 12:00N 30°48' E 133°48'26622.2 250 / 221007.210.8 23.016.125.2
2017-May-26 00:00N 28°42' E 129°18'12821.4 320 / 141008.010.8 24.518.622.1
2017-May-25 18:00N 27°48' E 127°06'12921.5 340 / 181009.010.8 22.920.026.3
2017-May-25 12:00N 26°54' E 124°54'37820.6 010 / 221010.0 5.4 22.019.025.0
2017-May-24 17:41N 24°14' E 118°35'418.6
2017-May-24 17:28N 24°13' E 118°31'917.5
2017-May-24 16:58N 24°11' E 118°21'715.7
2017-May-24 16:30N 24°15' E 118°15'816.2
2017-May-24 16:00N 24°21' E 118°09'612.0
2017-May-24 15:31N 24°25' E 118°04'2 4.4
2017-May-24 15:00N 24°26' E 118°02'0 0.3
2017-May-24 14:31N 24°26' E 118°02'0 0.0
2017-May-24 13:29N 24°26' E 118°02'0 0.0
2017-May-24 12:59N 24°26' E 118°02'0 0.0
2017-May-24 12:29N 24°26' E 118°02'0 0.0
2017-May-24 11:59N 24°26' E 118°02'0 0.0
2017-May-24 11:29N 24°26' E 118°02'0 0.0
2017-May-24 10:59N 24°27' E 118°02'0 0.0
2017-May-24 10:29N 24°26' E 118°02'0 0.0
2017-May-24 09:59N 24°26' E 118°02'0 0.0
2017-May-24 09:29N 24°26' E 118°02'0 0.0
2017-May-24 08:59N 24°26' E 118°02'0 0.0
2017-May-24 08:29N 24°26' E 118°02'0 0.0
2017-May-24 07:59N 24°26' E 118°02'0 0.0
2017-May-24 07:26N 24°26' E 118°02'0 0.0
2017-May-24 06:59N 24°26' E 118°02'0 0.0
2017-May-24 06:29N 24°26' E 118°02'0 0.0
2017-May-24 05:59N 24°26' E 118°02'0 0.0
2017-May-24 05:29N 24°26' E 118°02'0 0.0
2017-May-24 04:56N 24°26' E 118°02'0 0.0
2017-May-24 04:29N 24°26' E 118°02'0 0.0
2017-May-24 03:59N 24°26' E 118°02'0 0.0
2017-May-24 03:29N 24°26' E 118°02'0 0.0
2017-May-24 02:59N 24°26' E 118°02'0 0.0
2017-May-24 02:29N 24°26' E 118°02'0 0.0
2017-May-24 01:59N 24°26' E 118°02'0 0.0
2017-May-24 01:29N 24°26' E 118°02'0 0.0
2017-May-24 00:59N 24°26' E 118°02'0 0.0
2017-May-24 00:29N 24°26' E 118°02'0 0.0
2017-May-23 23:59N 24°26' E 118°02'0 0.0
2017-May-23 23:29N 24°26' E 118°02'0 0.0
2017-May-23 22:59N 24°26' E 118°02'0 0.0
2017-May-23 22:29N 24°26' E 118°02'0 0.0
2017-May-23 21:59N 24°26' E 118°02'0 0.0
2017-May-23 21:29N 24°26' E 118°02'0 0.0
2017-May-23 20:59N 24°26' E 118°02'0 0.0
2017-May-23 20:29N 24°26' E 118°02'0 0.0
2017-May-23 19:59N 24°26' E 118°02'0 0.0
2017-May-23 19:29N 24°26' E 118°02'0 0.0
2017-May-23 18:59N 24°26' E 118°02'0 0.0
2017-May-23 18:29N 24°26' E 118°02'0 0.1
2017-May-23 18:00N 24°26' E 118°02'3 5.5
2017-May-23 17:30N 24°25' E 118°04'510.7
2017-May-23 17:01N 24°22' E 118°09'4 8.0
2017-May-23 16:31N 24°19' E 118°12'713.0
2017-May-23 16:00N 24°14' E 118°16'713.8
2017-May-23 15:30N 24°12' E 118°24'0 0.1
2017-May-23 11:42N 24°12' E 118°24'0 0.0
2017-May-23 11:06N 24°12' E 118°24'0 0.0
2017-May-23 10:57N 24°12' E 118°24'0 0.0
2017-May-23 10:21N 24°12' E 118°24'0 0.0
2017-May-23 09:54N 24°12' E 118°24'0 0.0
2017-May-23 09:30N 24°12' E 118°24'0 0.0
2017-May-23 09:00N 24°12' E 118°24'0 0.0
2017-May-23 08:12N 24°12' E 118°24'0 0.0
2017-May-23 08:00N 24°12' E 118°24'0 0.1
2017-May-23 06:42N 24°12' E 118°24'0 0.0
2017-May-23 06:30N 24°12' E 118°24'0 0.0
2017-May-23 06:00N 24°12' E 118°24'0 0.1
2017-May-23 05:30N 24°12' E 118°24'0 0.6
2017-May-23 04:58N 24°12' E 118°24'2 5.1
2017-May-23 04:30N 24°09' E 118°23'4 7.3
2017-May-23 04:00N 24°06' E 118°24'816.3
2017-May-23 03:30N 23°58' E 118°23'  
2017-May-20 21:05N 22°19' E 114°07'0 5.2
2017-May-20 21:00N 22°20' E 114°07'0 0.0
2017-May-20 06:42N 22°20' E 114°07'0 1.8
2017-May-20 06:28N 22°20' E 114°07'  

Dump ship's entire track history